createdAt,value
2023-04-14T00:00:52.689Z,5.39
2023-04-14T00:03:22.402Z,5.43
2023-04-14T00:05:50.755Z,5.45
2023-04-14T00:08:18.933Z,5.46
2023-04-14T00:10:47.026Z,5.48
2023-04-14T00:13:15.096Z,5.49
2023-04-14T00:15:43.402Z,5.47
2023-04-14T00:18:11.591Z,5.45
2023-04-14T00:20:41.122Z,5.45
2023-04-14T00:23:09.527Z,5.48
2023-04-14T00:25:40.433Z,5.51
2023-04-14T00:28:09.301Z,5.52
2023-04-14T00:30:37.400Z,5.53
2023-04-14T00:33:05.622Z,5.54
2023-04-14T00:35:33.941Z,5.54
2023-04-14T00:38:03.602Z,5.52
2023-04-14T00:40:32.103Z,5.52
2023-04-14T00:43:00.158Z,5.52
2023-04-14T00:45:28.659Z,5.50
2023-04-14T00:47:57.456Z,5.51
2023-04-14T00:50:26.157Z,5.52
2023-04-14T00:52:54.352Z,5.54
2023-04-14T00:55:23.935Z,5.58
2023-04-14T00:57:52.504Z,5.54
2023-04-14T01:00:21.252Z,5.46
2023-04-14T01:02:49.499Z,5.50
2023-04-14T01:05:17.965Z,5.51
2023-04-14T01:07:48.354Z,5.49
2023-04-14T01:10:17.106Z,5.52
2023-04-14T01:13:13.593Z,5.52
2023-04-14T01:15:48.739Z,5.47
2023-04-14T01:18:23.025Z,5.47
2023-04-14T01:20:53.998Z,5.47
2023-04-14T01:23:24.854Z,5.49
2023-04-14T01:26:14.597Z,5.51
2023-04-14T01:29:28.613Z,5.52
2023-04-14T01:32:03.338Z,5.53
2023-04-14T01:34:36.451Z,5.48
2023-04-14T01:37:08.357Z,5.48
2023-04-14T01:39:40.113Z,5.52
2023-04-14T01:42:12.959Z,5.55
2023-04-14T01:44:43.608Z,5.56
2023-04-14T01:47:16.712Z,5.59
2023-04-14T01:49:47.672Z,5.61
2023-04-14T01:52:17.271Z,5.65
2023-04-14T01:54:48.198Z,5.63
2023-04-14T01:57:22.835Z,5.64
2023-04-14T01:59:53.202Z,5.62
2023-04-14T02:02:25.167Z,5.66
2023-04-14T02:04:57.517Z,5.63
2023-04-14T02:07:29.662Z,5.68
2023-04-14T02:09:59.830Z,5.67
2023-04-14T02:12:29.315Z,5.66
2023-04-14T02:14:59.843Z,5.62
2023-04-14T02:17:30.243Z,5.63
2023-04-14T02:19:59.413Z,5.64
2023-04-14T02:22:27.861Z,5.64
2023-04-14T02:24:56.710Z,5.63
2023-04-14T02:27:32.218Z,5.56
2023-04-14T02:30:05.449Z,5.58
2023-04-14T02:32:37.286Z,5.44
2023-04-14T02:35:14.764Z,5.44
2023-04-14T02:37:48.906Z,5.46
2023-04-14T02:40:21.653Z,5.46
2023-04-14T02:42:57.674Z,5.45
2023-04-14T02:45:31.619Z,5.45
2023-04-14T02:48:04.799Z,5.50
2023-04-14T02:50:34.859Z,5.46
2023-04-14T02:53:05.976Z,5.48
2023-04-14T02:55:38.436Z,5.47
2023-04-14T02:58:08.412Z,5.44
2023-04-14T03:00:40.492Z,5.44
2023-04-14T03:03:14.736Z,5.45
2023-04-14T03:05:45.222Z,5.45
2023-04-14T03:08:16.822Z,5.42
2023-04-14T03:10:47.466Z,5.41
2023-04-14T03:13:18.887Z,5.42
2023-04-14T03:15:47.875Z,5.41
2023-04-14T03:18:19.817Z,5.42
2023-04-14T03:20:50.228Z,5.44
2023-04-14T03:23:20.459Z,5.41
2023-04-14T03:25:49.350Z,5.42
2023-04-14T03:28:22.933Z,5.42
2023-04-14T03:30:54.371Z,5.35
2023-04-14T03:33:27.971Z,5.32
2023-04-14T03:35:58.625Z,5.27
2023-04-14T03:38:28.991Z,5.24
2023-04-14T03:41:01.326Z,5.24
2023-04-14T03:43:30.695Z,5.23
2023-04-14T03:45:58.941Z,5.22
2023-04-14T03:48:34.160Z,5.25
2023-04-14T03:51:05.391Z,5.24
2023-04-14T03:53:36.638Z,5.23
2023-04-14T03:56:07.073Z,5.20
2023-04-14T03:58:36.463Z,5.18
2023-04-14T04:01:05.797Z,5.15
2023-04-14T04:03:38.620Z,5.13
2023-04-14T04:06:08.260Z,5.11
2023-04-14T04:08:38.085Z,5.06
2023-04-14T04:11:08.714Z,5.05
2023-04-14T04:13:38.018Z,5.01
2023-04-14T04:16:08.311Z,4.99
2023-04-14T04:18:39.765Z,4.95
2023-04-14T04:21:13.180Z,4.92
2023-04-14T04:23:44.856Z,4.89
2023-04-14T04:26:13.057Z,4.86
2023-04-14T04:28:42.965Z,4.82
2023-04-14T04:31:12.324Z,4.78
2023-04-14T04:33:42.360Z,4.74
2023-04-14T04:36:11.431Z,4.69
2023-04-14T04:38:39.657Z,4.63
2023-04-14T04:41:07.904Z,4.62
2023-04-14T04:43:36.018Z,4.57
2023-04-14T04:46:21.750Z,4.58
2023-04-14T04:48:55.386Z,4.62
2023-04-14T04:51:24.925Z,4.63
2023-04-14T04:53:53.958Z,4.61
2023-04-14T04:56:22.251Z,4.61
2023-04-14T04:58:51.326Z,4.63
2023-04-14T05:01:19.554Z,4.61
2023-04-14T05:03:47.977Z,4.60
2023-04-14T05:06:18.025Z,4.59
2023-04-14T05:08:46.084Z,4.59
2023-04-14T05:11:14.255Z,4.57
2023-04-14T05:13:42.334Z,4.56
2023-04-14T05:16:13.798Z,4.50
2023-04-14T05:18:42.965Z,4.50
2023-04-14T05:21:12.797Z,4.53
2023-04-14T05:23:43.700Z,4.52
2023-04-14T05:28:48.308Z,4.53
2023-04-14T05:31:20.049Z,4.50
2023-04-14T05:33:48.667Z,4.51
2023-04-14T05:36:17.323Z,4.50
2023-04-14T05:38:46.672Z,4.51
2023-04-14T05:41:14.718Z,4.51
2023-04-14T05:43:42.754Z,4.54
2023-04-14T05:46:12.959Z,4.44
2023-04-14T05:48:43.986Z,4.48
2023-04-14T05:51:14.713Z,4.42
2023-04-14T05:53:42.963Z,4.47
2023-04-14T05:56:13.182Z,4.48
2023-04-14T05:58:42.544Z,4.47
2023-04-14T06:01:12.567Z,4.48
2023-04-14T06:03:41.099Z,4.60
2023-04-14T06:06:10.472Z,4.72
2023-04-14T06:08:38.832Z,4.88
2023-04-14T06:11:06.927Z,5.05
2023-04-14T06:13:36.713Z,5.17
2023-04-14T06:16:05.336Z,5.29
2023-04-14T06:18:33.386Z,5.44
2023-04-14T06:21:02.648Z,5.56
2023-04-14T06:23:31.778Z,5.66
2023-04-14T06:25:59.955Z,5.81
2023-04-14T06:28:28.010Z,5.96
2023-04-14T06:30:57.725Z,6.11
2023-04-14T06:33:25.964Z,6.29
2023-04-14T06:35:54.905Z,6.46
2023-04-14T06:38:25.241Z,6.64
2023-04-14T06:40:56.514Z,6.79
2023-04-14T06:43:25.032Z,6.91
2023-04-14T06:45:53.045Z,7.10
2023-04-14T06:48:22.480Z,7.22
2023-04-14T06:50:55.570Z,7.31
2023-04-14T06:53:23.754Z,7.36
2023-04-14T06:55:59.217Z,7.52
2023-04-14T06:58:28.312Z,7.67
2023-04-14T07:00:57.497Z,7.73
2023-04-14T07:03:28.889Z,7.55
2023-04-14T07:06:05.287Z,7.32
2023-04-14T07:08:35.538Z,7.23
2023-04-14T07:11:07.459Z,7.18
2023-04-14T07:13:36.906Z,7.15
2023-04-14T07:16:08.573Z,7.04
2023-04-14T07:18:40.619Z,7.10
2023-04-14T07:21:09.999Z,7.00
2023-04-14T07:23:40.075Z,7.10
2023-04-14T07:26:09.100Z,7.16
2023-04-14T07:28:39.372Z,7.13
2023-04-14T07:31:12.859Z,7.15
2023-04-14T07:33:44.550Z,7.19
2023-04-14T07:36:14.671Z,7.43
2023-04-14T07:38:44.638Z,7.81
2023-04-14T07:41:14.569Z,8.27
2023-04-14T07:43:43.838Z,8.57
2023-04-14T07:46:14.592Z,8.58
2023-04-14T07:48:45.480Z,8.65
2023-04-14T07:51:14.900Z,8.57
2023-04-14T07:53:45.294Z,8.50
2023-04-14T07:56:14.853Z,8.45
2023-04-14T07:58:45.582Z,8.55
2023-04-14T08:01:15.998Z,8.59
2023-04-14T08:03:47.679Z,8.60
2023-04-14T08:06:16.982Z,8.98
2023-04-14T08:08:46.058Z,9.07
2023-04-14T08:11:15.191Z,9.13
2023-04-14T08:13:45.577Z,9.14
2023-04-14T08:16:14.696Z,9.30
2023-04-14T08:18:43.908Z,9.48
2023-04-14T08:21:14.339Z,9.62
2023-04-14T08:23:43.227Z,9.86
2023-04-14T08:26:11.830Z,10.03
2023-04-14T08:28:40.343Z,10.15
2023-04-14T08:31:09.011Z,10.32
2023-04-14T08:33:37.730Z,10.52
2023-04-14T08:36:09.112Z,10.69
2023-04-14T08:38:38.854Z,10.82
2023-04-14T08:41:10.036Z,11.07
2023-04-14T08:43:39.039Z,11.20
2023-04-14T08:46:10.665Z,11.62
2023-04-14T08:48:42.370Z,11.77
2023-04-14T08:51:19.437Z,11.84
2023-04-14T08:53:53.008Z,11.81
2023-04-14T08:56:22.873Z,11.76
2023-04-14T08:58:51.513Z,11.64
2023-04-14T09:01:19.948Z,11.84
2023-04-14T09:03:49.152Z,12.07
2023-04-14T09:06:18.681Z,12.01
2023-04-14T09:08:48.142Z,12.03
2023-04-14T09:11:17.385Z,11.95
2023-04-14T09:13:45.860Z,12.07
2023-04-14T09:16:14.370Z,12.17
2023-04-14T09:18:42.535Z,12.30
2023-04-14T09:21:30.471Z,12.36
2023-04-14T09:24:01.436Z,12.45
2023-04-14T09:26:30.647Z,12.55
2023-04-14T09:28:58.933Z,12.72
2023-04-14T09:31:27.968Z,12.90
2023-04-14T09:33:56.281Z,12.75
2023-04-14T09:36:26.790Z,12.63
2023-04-14T09:38:54.849Z,12.69
2023-04-14T09:41:26.169Z,12.69
2023-04-14T09:43:54.498Z,12.92
2023-04-14T09:46:22.776Z,12.96
2023-04-14T09:48:52.838Z,12.69
2023-04-14T09:51:24.003Z,12.36
2023-04-14T09:53:54.173Z,12.41
2023-04-14T09:56:27.624Z,12.71
2023-04-14T09:58:59.698Z,12.89
2023-04-14T10:01:31.380Z,13.03
2023-04-14T10:04:01.332Z,12.91
2023-04-14T10:06:31.296Z,13.07
2023-04-14T10:08:59.973Z,13.37
2023-04-14T10:11:30.838Z,13.38
2023-04-14T10:14:00.414Z,13.35
2023-04-14T10:16:28.596Z,13.48
2023-04-14T10:18:58.643Z,13.60
2023-04-14T10:21:27.873Z,13.57
2023-04-14T10:23:57.725Z,13.59
2023-04-14T10:26:26.356Z,13.59
2023-04-14T10:28:57.324Z,13.48
2023-04-14T10:31:29.794Z,13.47
2023-04-14T10:33:57.836Z,13.44
2023-04-14T10:36:28.619Z,13.53
2023-04-14T10:39:02.481Z,13.52
2023-04-14T10:41:46.034Z,13.63
2023-04-14T10:44:28.848Z,13.74
2023-04-14T10:46:57.628Z,14.01
2023-04-14T10:49:30.562Z,14.03
2023-04-14T10:52:01.089Z,14.11
2023-04-14T10:54:29.113Z,14.12
2023-04-14T10:57:10.892Z,14.24
2023-04-14T10:59:43.562Z,14.51
2023-04-14T11:02:28.169Z,14.70
2023-04-14T11:05:05.191Z,14.63
2023-04-14T11:07:40.500Z,14.58
2023-04-14T11:10:28.702Z,14.68
2023-04-14T11:12:58.537Z,14.76
2023-04-14T11:15:44.516Z,14.75
2023-04-14T11:18:14.921Z,14.78
2023-04-14T11:20:43.814Z,14.84
2023-04-14T11:23:14.617Z,14.94
2023-04-14T11:25:42.744Z,15.23
2023-04-14T11:28:10.810Z,15.40
2023-04-14T11:30:42.070Z,15.43
2023-04-14T11:33:10.219Z,15.28
2023-04-14T11:35:38.341Z,15.17
2023-04-14T11:38:11.306Z,15.31
2023-04-14T11:40:39.277Z,15.38
2023-04-14T11:43:10.258Z,15.29
2023-04-14T11:45:43.924Z,15.54
2023-04-14T11:48:13.300Z,15.63
2023-04-14T11:50:42.751Z,15.68
2023-04-14T11:53:12.281Z,15.86
2023-04-14T11:55:44.634Z,16.08
2023-04-14T11:58:14.790Z,16.19
2023-04-14T12:00:45.761Z,16.32
2023-04-14T12:03:15.513Z,16.45
2023-04-14T12:05:45.429Z,16.19
2023-04-14T12:08:14.093Z,15.92
2023-04-14T12:10:44.956Z,15.86
2023-04-14T12:13:14.021Z,15.71
2023-04-14T12:15:44.128Z,15.69
2023-04-14T12:18:14.457Z,15.67
2023-04-14T12:20:44.026Z,15.73
2023-04-14T12:23:12.131Z,15.77
2023-04-14T12:25:40.854Z,15.70
2023-04-14T12:28:09.062Z,15.70
2023-04-14T12:30:38.233Z,15.53
2023-04-14T12:33:12.681Z,15.48
2023-04-14T12:35:41.626Z,15.31
2023-04-14T12:38:13.806Z,15.61
2023-04-14T12:40:43.913Z,15.57
2023-04-14T12:43:12.383Z,15.71
2023-04-14T12:45:44.659Z,15.65
2023-04-14T12:48:16.091Z,15.73
2023-04-14T12:50:44.659Z,15.96
2023-04-14T12:53:26.029Z,16.09
2023-04-14T12:56:08.128Z,16.01
2023-04-14T12:58:37.877Z,15.93
2023-04-14T13:01:08.113Z,16.00
2023-04-14T13:03:46.385Z,15.82
2023-04-14T13:06:17.364Z,15.70
2023-04-14T13:08:46.263Z,15.84
2023-04-14T13:11:14.578Z,15.77
2023-04-14T13:13:44.391Z,15.67
2023-04-14T13:16:16.343Z,15.96
2023-04-14T13:18:48.381Z,15.91
2023-04-14T13:21:16.645Z,16.03
2023-04-14T13:23:44.982Z,16.14
2023-04-14T13:26:13.269Z,16.06
2023-04-14T13:28:41.459Z,16.13
2023-04-14T13:31:13.214Z,16.10
2023-04-14T13:33:41.803Z,16.12
2023-04-14T13:36:11.328Z,16.09
2023-04-14T13:38:39.378Z,16.09
2023-04-14T13:41:07.389Z,16.08
2023-04-14T13:43:35.566Z,16.18
2023-04-14T13:46:03.551Z,16.05
2023-04-14T13:48:32.828Z,15.89
2023-04-14T13:51:02.331Z,15.66
2023-04-14T13:53:31.748Z,15.70
2023-04-14T13:55:59.795Z,15.64
2023-04-14T13:58:28.292Z,15.74
2023-04-14T14:00:56.879Z,15.62
2023-04-14T14:03:26.367Z,15.76
2023-04-14T14:05:55.492Z,15.76
2023-04-14T14:08:23.485Z,16.00
2023-04-14T14:10:54.288Z,16.09
2023-04-14T14:13:22.264Z,16.19
2023-04-14T14:15:50.267Z,16.23
2023-04-14T14:18:18.270Z,16.21
2023-04-14T14:20:47.293Z,16.07
2023-04-14T14:23:16.328Z,15.95
2023-04-14T14:25:44.539Z,15.83
2023-04-14T14:28:14.274Z,15.81
2023-04-14T14:30:42.408Z,15.71
2023-04-14T14:33:10.380Z,15.72
2023-04-14T14:35:38.779Z,15.74
2023-04-14T14:38:06.903Z,15.60
2023-04-14T14:40:34.852Z,15.48
2023-04-14T14:43:03.002Z,15.64
2023-04-14T14:45:33.165Z,15.64
2023-04-14T14:48:02.000Z,15.61
2023-04-14T14:50:29.989Z,15.54
2023-04-14T14:52:57.922Z,15.47
2023-04-14T14:55:25.929Z,15.36
2023-04-14T14:57:53.988Z,15.45
2023-04-14T15:00:22.129Z,15.55
2023-04-14T15:02:51.778Z,15.61
2023-04-14T15:05:19.944Z,15.64
2023-04-14T15:07:48.096Z,15.73
2023-04-14T15:10:16.255Z,15.84
2023-04-14T15:12:44.412Z,15.75
2023-04-14T15:15:13.252Z,15.66
2023-04-14T15:17:41.275Z,15.53
2023-04-14T15:20:12.003Z,15.51
2023-04-14T15:22:39.989Z,15.41
2023-04-14T15:25:18.339Z,15.41
2023-04-14T15:27:46.475Z,15.49
2023-04-14T15:30:16.407Z,15.52
2023-04-14T15:32:44.583Z,15.65
2023-04-14T15:35:13.934Z,15.60
2023-04-14T15:37:42.033Z,15.47
2023-04-14T15:40:11.461Z,15.55
2023-04-14T15:42:39.583Z,15.44
2023-04-14T15:45:08.608Z,15.31
2023-04-14T15:47:36.650Z,15.21
2023-04-14T15:50:09.333Z,15.22
2023-04-14T15:52:40.356Z,15.16
2023-04-14T15:55:10.657Z,15.30
2023-04-14T15:57:38.654Z,15.05
2023-04-14T16:00:08.386Z,15.09
2023-04-14T16:02:36.899Z,15.10
2023-04-14T16:05:05.581Z,15.16
2023-04-14T16:07:33.557Z,15.12
2023-04-14T16:10:03.182Z,15.18
2023-04-14T16:12:34.470Z,15.22
2023-04-14T16:15:02.758Z,15.27
2023-04-14T16:17:31.701Z,15.31
2023-04-14T16:19:59.699Z,15.44
2023-04-14T16:22:27.808Z,15.42
2023-04-14T16:24:55.959Z,15.40
2023-04-14T16:27:25.447Z,15.30
2023-04-14T16:29:53.494Z,15.32
2023-04-14T16:32:21.581Z,15.33
2023-04-14T16:34:49.811Z,15.33
2023-04-14T16:37:18.019Z,15.14
2023-04-14T16:39:46.328Z,15.16
2023-04-14T16:42:18.677Z,15.12
2023-04-14T16:44:48.049Z,15.20
2023-04-14T16:47:16.120Z,15.09
2023-04-14T16:49:44.064Z,15.10
2023-04-14T16:52:12.064Z,14.93
2023-04-14T16:54:40.118Z,14.98
2023-04-14T16:57:08.329Z,15.02
2023-04-14T16:59:36.322Z,14.91
2023-04-14T17:02:05.806Z,14.82
2023-04-14T17:04:34.293Z,14.70
2023-04-14T17:07:02.439Z,14.55
2023-04-14T17:09:30.439Z,14.46
2023-04-14T17:11:58.886Z,14.44
2023-04-14T17:14:27.027Z,14.42
2023-04-14T17:16:55.095Z,14.33
2023-04-14T17:19:24.962Z,14.19
2023-04-14T17:21:52.980Z,14.12
2023-04-14T17:24:20.918Z,13.94
2023-04-14T17:26:49.323Z,13.77
2023-04-14T17:29:17.253Z,13.91
2023-04-14T17:31:46.266Z,13.89
2023-04-14T17:34:18.296Z,13.73
2023-04-14T17:36:49.873Z,13.60
2023-04-14T17:39:20.481Z,13.50
2023-04-14T17:41:49.213Z,13.40
2023-04-14T17:44:17.156Z,13.31
2023-04-14T17:46:46.176Z,13.22
2023-04-14T17:49:14.211Z,13.13
2023-04-14T17:51:42.555Z,13.04
2023-04-14T17:54:12.264Z,12.98
2023-04-14T17:56:40.200Z,13.02
2023-04-14T17:59:09.590Z,12.89
2023-04-14T18:01:37.627Z,12.79
2023-04-14T18:04:05.905Z,12.70
2023-04-14T18:06:34.557Z,12.59
2023-04-14T18:09:02.748Z,12.53
2023-04-14T18:11:32.644Z,12.42
2023-04-14T18:14:00.870Z,12.42
2023-04-14T18:16:29.122Z,12.28
2023-04-14T18:18:57.135Z,12.22
2023-04-14T18:21:26.345Z,12.12
2023-04-14T18:26:26.809Z,11.99
2023-04-14T18:28:57.006Z,11.94
2023-04-14T18:31:25.348Z,11.87
2023-04-14T18:33:53.343Z,11.77
2023-04-14T18:36:21.313Z,11.70
2023-04-14T18:38:49.604Z,11.64
2023-04-14T18:41:17.785Z,11.56
2023-04-14T18:43:45.770Z,11.48
2023-04-14T18:46:15.241Z,11.42
2023-04-14T18:48:43.431Z,11.37
2023-04-14T18:51:11.876Z,11.30
2023-04-14T18:53:41.897Z,11.25
2023-04-14T18:56:10.166Z,11.22
2023-04-14T18:58:40.095Z,11.14
2023-04-14T19:01:08.814Z,11.06
2023-04-14T19:03:40.663Z,11.03
2023-04-14T19:06:08.770Z,10.98
2023-04-14T19:08:36.934Z,10.92
2023-04-14T19:11:05.576Z,10.86
2023-04-14T19:13:33.544Z,10.81
2023-04-14T19:16:06.206Z,10.77
2023-04-14T19:18:34.381Z,10.76
2023-04-14T19:21:03.942Z,10.74
2023-04-14T19:23:31.936Z,10.70
2023-04-14T19:26:00.434Z,10.69
2023-04-14T19:28:28.988Z,10.65
2023-04-14T19:30:56.974Z,10.62
2023-04-14T19:33:26.830Z,10.57
2023-04-14T19:35:54.973Z,10.53
2023-04-14T19:38:24.377Z,10.47
2023-04-14T19:40:52.889Z,10.42
2023-04-14T19:43:20.828Z,10.36
2023-04-14T19:45:52.712Z,10.26
2023-04-14T19:48:23.950Z,10.17
2023-04-14T19:50:54.675Z,10.16
2023-04-14T19:53:25.528Z,10.10
2023-04-14T19:55:58.915Z,10.07
2023-04-14T19:58:28.647Z,10.06
2023-04-14T20:00:58.240Z,9.96
2023-04-14T20:03:27.355Z,9.95
2023-04-14T20:05:56.849Z,9.92
2023-04-14T20:08:27.329Z,9.85
2023-04-14T20:10:56.892Z,9.83
2023-04-14T20:13:30.430Z,9.81
2023-04-14T20:15:58.533Z,9.82
2023-04-14T20:18:28.011Z,9.74
2023-04-14T20:20:56.561Z,9.68
2023-04-14T20:23:26.400Z,9.62
2023-04-14T20:25:56.096Z,9.61
2023-04-14T20:28:27.085Z,9.55
2023-04-14T20:30:56.271Z,9.47
2023-04-14T20:33:24.720Z,9.49
2023-04-14T20:35:54.069Z,9.43
2023-04-14T20:38:23.294Z,9.36
2023-04-14T20:40:52.790Z,9.36
2023-04-14T20:43:21.200Z,9.33
2023-04-14T20:45:50.334Z,9.27
2023-04-14T20:48:18.590Z,9.22
2023-04-14T20:50:49.716Z,9.18
2023-04-14T20:53:18.076Z,9.14
2023-04-14T20:55:46.111Z,9.11
2023-04-14T20:58:15.517Z,9.08
2023-04-14T21:00:48.272Z,9.12
2023-04-14T21:03:16.435Z,9.11
2023-04-14T21:05:46.290Z,9.06
2023-04-14T21:08:14.429Z,8.91
2023-04-14T21:11:14.437Z,8.83
2023-04-14T21:15:25.522Z,8.73
2023-04-14T21:16:19.918Z,8.63
2023-04-14T21:18:48.009Z,8.55
2023-04-14T21:21:16.424Z,8.61
2023-04-14T21:23:44.429Z,8.55
2023-04-14T21:26:13.334Z,8.43
2023-04-14T21:28:43.178Z,8.34
2023-04-14T21:31:11.384Z,8.30
2023-04-14T21:33:41.876Z,8.29
2023-04-14T21:36:10.958Z,8.28
2023-04-14T21:38:40.332Z,8.23
2023-04-14T21:41:12.235Z,8.25
2023-04-14T21:43:42.998Z,8.22
2023-04-14T21:46:12.654Z,8.21
2023-04-14T21:48:41.910Z,8.21
2023-04-14T21:51:11.116Z,8.20
2023-04-14T21:53:41.427Z,8.20
2023-04-14T21:56:13.067Z,8.24
2023-04-14T21:58:43.533Z,8.24
2023-04-14T22:01:13.584Z,8.24
2023-04-14T22:03:42.812Z,8.05
2023-04-14T22:06:11.925Z,8.07
2023-04-14T22:08:41.621Z,8.11
2023-04-14T22:11:10.876Z,8.14
2023-04-14T22:13:39.325Z,8.15
2023-04-14T22:16:11.358Z,8.15
2023-04-14T22:18:39.687Z,8.11
2023-04-14T22:21:09.912Z,8.10
2023-04-14T22:23:38.710Z,8.13
2023-04-14T22:26:06.845Z,8.03
2023-04-14T22:28:34.852Z,7.98
2023-04-14T22:31:02.977Z,7.96
2023-04-14T22:33:32.479Z,7.94
2023-04-14T22:36:03.977Z,7.90
2023-04-14T22:38:33.903Z,7.85
2023-04-14T22:41:02.605Z,7.80
2023-04-14T22:43:31.103Z,7.75
2023-04-14T22:45:59.144Z,7.73
2023-04-14T22:48:27.223Z,7.72
2023-04-14T22:50:56.704Z,7.73
2023-04-14T22:53:24.726Z,7.73
2023-04-14T22:55:52.798Z,7.75
2023-04-14T22:58:21.929Z,7.73
2023-04-14T23:00:50.089Z,7.66
2023-04-14T23:03:18.272Z,7.63
2023-04-14T23:05:46.254Z,7.56
2023-04-14T23:08:15.720Z,7.51
2023-04-14T23:10:43.868Z,7.53
2023-04-14T23:13:11.949Z,7.46
2023-04-14T23:15:42.204Z,7.42
2023-04-14T23:18:14.050Z,7.43
2023-04-14T23:20:46.168Z,7.40
2023-04-14T23:23:18.987Z,7.40
2023-04-14T23:25:50.354Z,7.41
2023-04-14T23:28:19.105Z,7.40
2023-04-14T23:30:47.772Z,7.36
2023-04-14T23:33:16.958Z,7.38
2023-04-14T23:35:45.627Z,7.36
2023-04-14T23:38:18.372Z,7.28
2023-04-14T23:40:47.483Z,7.28
2023-04-14T23:43:15.761Z,7.23
2023-04-14T23:45:43.842Z,7.22
2023-04-14T23:48:12.213Z,7.20
2023-04-14T23:51:01.320Z,7.26
2023-04-14T23:53:29.749Z,7.28
2023-04-14T23:55:57.822Z,7.28
2023-04-14T23:58:28.410Z,7.19
